createdAt,value
2023-03-02T00:00:40.671Z,130.60
2023-03-02T00:01:40.654Z,134.50
2023-03-02T00:02:40.665Z,134.50
2023-03-02T00:03:40.741Z,130.40
2023-03-02T00:04:41.110Z,117.40
2023-03-02T00:05:40.587Z,117.40
2023-03-02T00:06:40.544Z,113.20
2023-03-02T00:07:40.539Z,119.90
2023-03-02T00:08:40.579Z,119.50
2023-03-02T00:09:40.534Z,131.30
2023-03-02T00:10:40.542Z,121.80
2023-03-02T00:11:40.497Z,131.30
2023-03-02T00:12:40.476Z,121.20
2023-03-02T00:13:40.460Z,120.90
2023-03-02T00:14:40.477Z,116.70
2023-03-02T00:15:40.476Z,115.30
2023-03-02T00:16:40.427Z,114.60
2023-03-02T00:17:40.436Z,115.20
2023-03-02T00:18:40.401Z,112.10
2023-03-02T00:19:40.406Z,113.90
2023-03-02T00:20:40.379Z,108.30
2023-03-02T00:21:40.363Z,110.30
2023-03-02T00:22:40.380Z,113.80
2023-03-02T00:23:40.332Z,119.00
2023-03-02T00:24:40.339Z,129.40
2023-03-02T00:25:40.300Z,132.30
2023-03-02T00:26:40.293Z,135.90
2023-03-02T00:27:40.273Z,140.60
2023-03-02T00:28:40.307Z,130.60
2023-03-02T00:29:40.252Z,136.10
2023-03-02T00:30:40.256Z,121.80
2023-03-02T00:31:40.412Z,118.70
2023-03-02T00:32:40.216Z,110.00
2023-03-02T00:33:40.234Z,115.40
2023-03-02T00:34:40.205Z,114.80
2023-03-02T00:35:40.303Z,104.80
2023-03-02T00:36:40.595Z,98.50
2023-03-02T00:37:40.148Z,99.50
2023-03-02T00:38:40.124Z,94.20
2023-03-02T00:39:40.153Z,100.40
2023-03-02T00:40:40.112Z,99.10
2023-03-02T00:41:40.117Z,96.00
2023-03-02T00:42:40.077Z,92.60
2023-03-02T00:43:40.078Z,95.30
2023-03-02T00:44:40.099Z,97.40
2023-03-02T00:45:40.036Z,97.10
2023-03-02T00:46:40.136Z,93.40
2023-03-02T00:47:41.516Z,100.40
2023-03-02T00:48:40.025Z,106.00
2023-03-02T00:49:39.992Z,107.90
2023-03-02T00:50:40.008Z,105.00
2023-03-02T00:51:40.000Z,107.80
2023-03-02T00:52:39.947Z,108.20
2023-03-02T00:53:39.999Z,103.80
2023-03-02T00:54:39.957Z,108.00
2023-03-02T00:55:39.921Z,102.40
2023-03-02T00:56:39.910Z,98.60
2023-03-02T00:57:39.886Z,97.80
2023-03-02T00:58:39.900Z,105.00
2023-03-02T00:59:39.848Z,102.90
2023-03-02T01:00:39.845Z,99.40
2023-03-02T01:01:39.853Z,97.50
2023-03-02T01:02:39.922Z,92.90
2023-03-02T01:03:39.816Z,97.60
2023-03-02T01:04:39.824Z,104.30
2023-03-02T01:05:39.789Z,109.20
2023-03-02T01:06:39.758Z,107.50
2023-03-02T01:07:39.760Z,103.50
2023-03-02T01:08:39.746Z,108.70
2023-03-02T01:09:39.823Z,113.60
2023-03-02T01:10:39.713Z,102.00
2023-03-02T01:11:39.719Z,100.10
2023-03-02T01:12:39.684Z,94.40
2023-03-02T01:13:39.706Z,98.80
2023-03-02T01:14:39.690Z,90.40
2023-03-02T01:15:39.685Z,88.20
2023-03-02T01:16:39.701Z,92.40
2023-03-02T01:17:39.630Z,86.30
2023-03-02T01:18:39.648Z,89.50
2023-03-02T01:19:39.618Z,86.80
2023-03-02T01:20:39.600Z,85.50
2023-03-02T01:21:39.574Z,86.00
2023-03-02T01:22:39.610Z,81.10
2023-03-02T01:23:39.564Z,81.00
2023-03-02T01:24:39.551Z,85.50
2023-03-02T01:25:39.542Z,84.40
2023-03-02T01:26:39.523Z,90.30
2023-03-02T01:27:39.535Z,88.40
2023-03-02T01:28:39.498Z,91.90
2023-03-02T01:29:39.485Z,85.50
2023-03-02T01:30:39.495Z,86.60
2023-03-02T01:31:39.609Z,89.30
2023-03-02T01:32:39.495Z,88.20
2023-03-02T01:33:39.423Z,91.90
2023-03-02T01:34:39.426Z,90.80
2023-03-02T01:35:39.433Z,96.90
2023-03-02T01:36:39.383Z,103.60
2023-03-02T01:37:39.406Z,102.10
2023-03-02T01:38:39.379Z,103.70
2023-03-02T01:39:39.353Z,95.00
2023-03-02T01:40:39.317Z,93.30
2023-03-02T01:41:39.322Z,91.40
2023-03-02T01:42:39.334Z,89.60
2023-03-02T01:43:39.326Z,90.00
2023-03-02T01:44:39.270Z,89.30
2023-03-02T01:45:39.281Z,90.30
2023-03-02T01:46:39.251Z,86.90
2023-03-02T01:47:39.372Z,82.00
2023-03-02T01:48:39.289Z,94.00
2023-03-02T01:49:39.231Z,96.30
2023-03-02T01:50:39.218Z,100.10
2023-03-02T01:51:39.179Z,92.70
2023-03-02T01:52:39.195Z,101.90
2023-03-02T01:53:39.174Z,99.80
2023-03-02T01:54:39.147Z,98.00
2023-03-02T01:55:39.141Z,98.30
2023-03-02T01:56:39.147Z,99.00
2023-03-02T01:57:39.103Z,104.50
2023-03-02T01:58:39.130Z,106.90
2023-03-02T01:59:39.104Z,101.30
2023-03-02T02:00:39.187Z,101.90
2023-03-02T02:01:39.050Z,100.70
2023-03-02T02:02:39.043Z,96.50
2023-03-02T02:03:39.080Z,98.10
2023-03-02T02:04:39.065Z,97.30
2023-03-02T02:05:39.019Z,96.30
2023-03-02T02:06:39.037Z,96.20
2023-03-02T02:07:39.008Z,104.80
2023-03-02T02:08:38.977Z,99.30
2023-03-02T02:09:38.943Z,98.50
2023-03-02T02:10:38.936Z,93.50
2023-03-02T02:11:38.946Z,96.60
2023-03-02T02:12:38.924Z,106.70
2023-03-02T02:13:39.003Z,105.00
2023-03-02T02:14:38.892Z,109.60
2023-03-02T02:15:38.880Z,107.00
2023-03-02T02:16:38.902Z,108.20
2023-03-02T02:17:38.866Z,105.40
2023-03-02T02:18:38.836Z,106.20
2023-03-02T02:19:38.857Z,103.20
2023-03-02T02:20:38.815Z,99.50
2023-03-02T02:21:38.796Z,101.20
2023-03-02T02:22:38.825Z,98.10
2023-03-02T02:23:38.784Z,98.40
2023-03-02T02:24:38.772Z,103.70
2023-03-02T02:25:38.736Z,110.70
2023-03-02T02:26:38.738Z,106.20
2023-03-02T02:27:38.708Z,110.30
2023-03-02T02:28:38.717Z,116.30
2023-03-02T02:29:38.732Z,116.00
2023-03-02T02:30:38.678Z,116.20
2023-03-02T02:31:38.741Z,117.20
2023-03-02T02:32:38.719Z,119.60
2023-03-02T02:33:38.628Z,119.60
2023-03-02T02:34:38.658Z,128.10
2023-03-02T02:35:38.791Z,123.20
2023-03-02T02:36:38.629Z,124.50
2023-03-02T02:37:38.583Z,121.60
2023-03-02T02:38:38.591Z,114.20
2023-03-02T02:39:38.564Z,113.00
2023-03-02T02:40:38.584Z,110.20
2023-03-02T02:41:38.542Z,109.90
2023-03-02T02:42:38.533Z,99.50
2023-03-02T02:43:38.533Z,104.30
2023-03-02T02:44:38.518Z,106.40
2023-03-02T02:45:38.574Z,101.10
2023-03-02T02:46:38.472Z,95.20
2023-03-02T02:47:38.456Z,93.20
2023-03-02T02:48:38.439Z,94.00
2023-03-02T02:49:38.470Z,100.30
2023-03-02T02:50:38.464Z,104.50
2023-03-02T02:51:38.405Z,104.60
2023-03-02T02:52:38.391Z,105.50
2023-03-02T02:53:38.399Z,108.40
2023-03-02T02:54:38.392Z,112.80
2023-03-02T02:55:38.360Z,113.90
2023-03-02T02:56:38.342Z,111.90
2023-03-02T02:57:38.364Z,99.30
2023-03-02T02:58:38.302Z,92.80
2023-03-02T02:59:38.327Z,92.80
2023-03-02T03:00:38.296Z,99.40
2023-03-02T03:01:38.285Z,103.70
2023-03-02T03:02:38.266Z,102.10
2023-03-02T03:03:38.278Z,100.30
2023-03-02T03:04:38.394Z,106.10
2023-03-02T03:05:38.217Z,104.30
2023-03-02T03:06:38.253Z,98.10
2023-03-02T03:07:38.204Z,98.60
2023-03-02T03:08:38.217Z,98.80
2023-03-02T03:09:38.271Z,103.70
2023-03-02T03:10:38.165Z,100.80
2023-03-02T03:11:38.133Z,98.50
2023-03-02T03:12:38.125Z,99.70
2023-03-02T03:13:38.130Z,96.30
2023-03-02T03:14:38.117Z,99.10
2023-03-02T03:15:38.094Z,103.20
2023-03-02T03:16:38.091Z,96.90
2023-03-02T03:17:38.062Z,107.20
2023-03-02T03:18:38.114Z,97.90
2023-03-02T03:19:38.064Z,107.60
2023-03-02T03:20:38.056Z,108.40
2023-03-02T03:21:38.022Z,133.50
2023-03-02T03:22:38.005Z,135.70
2023-03-02T03:23:37.988Z,139.00
2023-03-02T03:24:37.968Z,145.20
2023-03-02T03:25:37.980Z,142.80
2023-03-02T03:26:37.953Z,141.40
2023-03-02T03:27:37.931Z,147.00
2023-03-02T03:28:37.907Z,129.20
2023-03-02T03:29:37.927Z,111.20
2023-03-02T03:30:37.966Z,109.10
2023-03-02T03:31:37.893Z,110.70
2023-03-02T03:32:37.862Z,111.00
2023-03-02T03:33:37.876Z,114.00
2023-03-02T03:34:37.833Z,114.80
2023-03-02T03:35:37.856Z,111.40
2023-03-02T03:36:37.814Z,104.00
2023-03-02T03:37:37.789Z,108.70
2023-03-02T03:38:37.813Z,111.30
2023-03-02T03:39:37.779Z,110.60
2023-03-02T03:40:37.787Z,104.90
2023-03-02T03:41:37.798Z,107.30
2023-03-02T03:42:37.723Z,99.90
2023-03-02T03:43:37.721Z,94.90
2023-03-02T03:44:37.698Z,99.80
2023-03-02T03:45:37.711Z,96.50
2023-03-02T03:46:37.709Z,100.50
2023-03-02T03:47:37.666Z,99.10
2023-03-02T03:48:37.643Z,99.10
2023-03-02T03:49:37.669Z,100.10
2023-03-02T03:50:37.640Z,98.90
2023-03-02T03:51:37.610Z,101.90
2023-03-02T03:52:37.600Z,99.60
2023-03-02T03:53:37.610Z,100.80
2023-03-02T03:54:37.606Z,103.80
2023-03-02T03:55:37.569Z,99.30
2023-03-02T03:56:37.547Z,93.80
2023-03-02T03:57:37.539Z,97.50
2023-03-02T03:58:37.577Z,90.60
2023-03-02T03:59:37.520Z,87.40
2023-03-02T04:00:37.518Z,83.60
2023-03-02T04:01:37.558Z,84.90
2023-03-02T04:02:37.514Z,81.40
2023-03-02T04:03:37.448Z,81.00
2023-03-02T04:04:37.433Z,78.70
2023-03-02T04:05:37.490Z,84.50
2023-03-02T04:06:37.408Z,89.80
2023-03-02T04:07:37.401Z,89.10
2023-03-02T04:08:37.406Z,94.60
2023-03-02T04:09:37.379Z,90.80
2023-03-02T04:10:37.391Z,95.40
2023-03-02T04:11:37.354Z,94.50
2023-03-02T04:12:37.323Z,88.10
2023-03-02T04:13:37.326Z,88.80
2023-03-02T04:14:37.345Z,91.00
2023-03-02T04:15:37.338Z,89.30
2023-03-02T04:16:37.285Z,91.50
2023-03-02T04:17:37.313Z,92.40
2023-03-02T04:18:37.255Z,94.30
2023-03-02T04:19:37.244Z,98.60
2023-03-02T04:20:37.235Z,96.90
2023-03-02T04:21:37.218Z,93.40
2023-03-02T04:22:37.268Z,90.40
2023-03-02T04:23:37.183Z,104.10
2023-03-02T04:24:37.175Z,88.60
2023-03-02T04:25:37.198Z,82.80
2023-03-02T04:26:37.147Z,81.50
2023-03-02T04:27:37.139Z,78.00
2023-03-02T04:28:37.151Z,79.30
2023-03-02T04:29:37.154Z,86.30
2023-03-02T04:30:37.121Z,89.40
2023-03-02T04:31:37.106Z,88.00
2023-03-02T04:32:37.078Z,80.30
2023-03-02T04:33:37.117Z,83.90
2023-03-02T04:34:37.126Z,74.80
2023-03-02T04:35:37.097Z,78.20
2023-03-02T04:36:37.445Z,74.50
2023-03-02T04:37:37.030Z,73.70
2023-03-02T04:38:37.040Z,79.40
2023-03-02T04:39:36.999Z,77.70
2023-03-02T04:40:36.987Z,69.60
2023-03-02T04:41:36.990Z,80.10
2023-03-02T04:42:36.998Z,77.80
2023-03-02T04:43:36.939Z,77.50
2023-03-02T04:44:36.931Z,82.30
2023-03-02T04:45:36.925Z,89.60
2023-03-02T04:46:37.173Z,80.80
2023-03-02T04:47:36.896Z,72.80
2023-03-02T04:48:36.906Z,72.50
2023-03-02T04:49:36.858Z,71.40
2023-03-02T04:50:36.858Z,73.30
2023-03-02T04:51:36.870Z,71.60
2023-03-02T04:52:36.827Z,70.90
2023-03-02T04:53:36.813Z,70.60
2023-03-02T04:54:36.827Z,75.30
2023-03-02T04:55:36.789Z,67.10
2023-03-02T04:56:36.810Z,69.10
2023-03-02T04:57:36.807Z,74.20
2023-03-02T04:58:36.743Z,75.60
2023-03-02T04:59:36.725Z,74.50
2023-03-02T05:00:36.732Z,74.50
2023-03-02T05:01:36.708Z,71.40
2023-03-02T05:02:36.792Z,70.90
2023-03-02T05:03:36.720Z,71.90
2023-03-02T05:04:36.799Z,74.70
2023-03-02T05:05:36.661Z,77.00
2023-03-02T05:06:36.638Z,79.80
2023-03-02T05:07:36.658Z,80.80
2023-03-02T05:08:36.635Z,82.10
2023-03-02T05:09:36.624Z,76.90
2023-03-02T05:10:36.626Z,69.20
2023-03-02T05:11:36.578Z,73.50
2023-03-02T05:12:36.585Z,71.70
2023-03-02T05:13:36.561Z,77.90
2023-03-02T05:14:36.546Z,76.30
2023-03-02T05:15:36.541Z,86.30
2023-03-02T05:16:37.069Z,79.40
2023-03-02T05:17:36.509Z,72.30
2023-03-02T05:18:36.499Z,84.80
2023-03-02T05:19:36.510Z,89.60
2023-03-02T05:20:36.465Z,90.40
2023-03-02T05:21:36.450Z,87.50
2023-03-02T05:22:36.461Z,79.20
2023-03-02T05:23:36.431Z,80.20
2023-03-02T05:24:36.418Z,79.30
2023-03-02T05:25:36.403Z,74.80
2023-03-02T05:26:36.407Z,69.80
2023-03-02T05:27:36.388Z,69.20
2023-03-02T05:28:36.350Z,64.70
2023-03-02T05:29:36.348Z,68.90
2023-03-02T05:30:36.328Z,63.50
2023-03-02T05:31:36.427Z,62.70
2023-03-02T05:32:36.439Z,66.00
2023-03-02T05:33:36.298Z,64.10
2023-03-02T05:34:36.284Z,56.10
2023-03-02T05:35:36.295Z,55.50
2023-03-02T05:36:36.784Z,50.70
2023-03-02T05:37:36.255Z,54.90
2023-03-02T05:38:36.253Z,55.10
2023-03-02T05:39:36.239Z,63.70
2023-03-02T05:40:36.200Z,63.90
2023-03-02T05:41:36.187Z,81.50
2023-03-02T05:42:36.189Z,80.00
2023-03-02T05:43:36.196Z,75.10
2023-03-02T05:44:36.167Z,74.00
2023-03-02T05:45:36.148Z,65.80
2023-03-02T05:46:36.600Z,64.10
2023-03-02T05:47:36.112Z,78.60
2023-03-02T05:48:36.098Z,74.40
2023-03-02T05:49:36.136Z,76.20
2023-03-02T05:50:36.057Z,71.10
2023-03-02T05:51:36.062Z,65.50
2023-03-02T05:52:36.050Z,64.00
2023-03-02T05:53:36.051Z,60.00
2023-03-02T05:54:36.024Z,57.00
2023-03-02T05:55:36.010Z,60.80
2023-03-02T05:56:36.151Z,60.20
2023-03-02T05:57:35.993Z,61.40
2023-03-02T05:58:35.966Z,66.30
2023-03-02T05:59:35.977Z,66.00
2023-03-02T06:00:36.026Z,66.20
2023-03-02T06:01:36.188Z,61.50
2023-03-02T06:02:35.922Z,56.70
2023-03-02T06:03:35.900Z,59.90
2023-03-02T06:04:35.887Z,57.40
2023-03-02T06:05:35.913Z,72.40
2023-03-02T06:06:36.233Z,94.30
2023-03-02T06:07:35.846Z,115.30
2023-03-02T06:08:35.840Z,122.60
2023-03-02T06:09:35.844Z,107.20
2023-03-02T06:10:35.795Z,85.60
2023-03-02T06:11:35.832Z,83.20
2023-03-02T06:12:35.787Z,96.60
2023-03-02T06:13:35.773Z,97.70
2023-03-02T06:14:35.788Z,93.20
2023-03-02T06:15:35.753Z,83.00
2023-03-02T06:16:36.188Z,79.90
2023-03-02T06:17:35.757Z,70.90
2023-03-02T06:18:35.768Z,62.20
2023-03-02T06:19:35.713Z,56.70
2023-03-02T06:20:35.699Z,61.60
2023-03-02T06:21:35.696Z,59.20
2023-03-02T06:22:35.652Z,56.00
2023-03-02T06:23:35.648Z,49.10
2023-03-02T06:24:35.642Z,50.50
2023-03-02T06:25:35.632Z,50.00
2023-03-02T06:26:35.607Z,49.20
2023-03-02T06:27:35.577Z,50.20
2023-03-02T06:28:49.840Z,50.10
2023-03-02T06:29:35.578Z,49.70
2023-03-02T06:30:35.566Z,55.10
2023-03-02T06:31:35.540Z,54.20
2023-03-02T06:32:35.605Z,53.80
2023-03-02T06:33:35.541Z,57.10
2023-03-02T06:34:35.563Z,62.30
2023-03-02T06:35:35.628Z,69.20
2023-03-02T06:36:35.909Z,57.20
2023-03-02T06:37:35.460Z,55.90
2023-03-02T06:38:35.463Z,51.70
2023-03-02T06:39:35.447Z,44.10
2023-03-02T06:40:35.413Z,47.10
2023-03-02T06:41:35.414Z,52.50
2023-03-02T06:42:35.406Z,51.80
2023-03-02T06:43:35.367Z,67.30
2023-03-02T06:44:35.384Z,63.70
2023-03-02T06:45:35.389Z,75.30
2023-03-02T06:46:35.557Z,72.10
2023-03-02T06:47:35.363Z,74.50
2023-03-02T06:48:35.349Z,54.50
2023-03-02T06:49:35.296Z,64.60
2023-03-02T06:50:35.319Z,57.90
2023-03-02T06:51:35.275Z,54.30
2023-03-02T06:52:35.292Z,58.20
2023-03-02T06:53:35.255Z,73.90
2023-03-02T06:54:35.270Z,59.60
2023-03-02T06:55:35.231Z,60.80
2023-03-02T06:56:35.492Z,57.40
2023-03-02T06:57:35.204Z,60.30
2023-03-02T06:58:35.178Z,60.50
2023-03-02T06:59:35.198Z,60.40
2023-03-02T07:00:35.159Z,54.80
2023-03-02T07:01:35.545Z,56.90
2023-03-02T07:02:35.151Z,59.10
2023-03-02T07:03:35.151Z,73.90
2023-03-02T07:04:35.106Z,80.40
2023-03-02T07:05:35.089Z,74.20
2023-03-02T07:06:35.093Z,66.80
2023-03-02T07:07:35.077Z,78.30
2023-03-02T07:08:35.103Z,77.10
2023-03-02T07:09:35.059Z,69.60
2023-03-02T07:10:35.019Z,69.80
2023-03-02T07:11:35.229Z,70.90
2023-03-02T07:12:35.002Z,67.50
2023-03-02T07:13:35.010Z,70.40
2023-03-02T07:14:34.977Z,63.70
2023-03-02T07:15:34.948Z,58.90
2023-03-02T07:16:35.066Z,58.90
2023-03-02T07:17:34.941Z,61.90
2023-03-02T07:18:34.922Z,59.80
2023-03-02T07:19:34.899Z,58.60
2023-03-02T07:20:34.896Z,60.30
2023-03-02T07:21:35.239Z,54.40
2023-03-02T07:22:34.868Z,53.50
2023-03-02T07:23:34.899Z,50.30
2023-03-02T07:24:34.869Z,51.80
2023-03-02T07:25:34.857Z,51.70
2023-03-02T07:26:34.850Z,49.70
2023-03-02T07:27:34.811Z,48.50
2023-03-02T07:28:34.801Z,49.40
2023-03-02T07:29:34.772Z,44.00
2023-03-02T07:30:34.804Z,43.30
2023-03-02T07:31:35.156Z,39.00
2023-03-02T07:32:34.825Z,38.50
2023-03-02T07:33:34.739Z,35.40
2023-03-02T07:34:34.733Z,32.40
2023-03-02T07:35:34.752Z,32.70
2023-03-02T07:36:34.689Z,34.70
2023-03-02T07:37:34.686Z,24.90
2023-03-02T07:38:34.668Z,24.70
2023-03-02T07:39:34.655Z,22.20
2023-03-02T07:40:34.632Z,21.20
2023-03-02T07:41:35.080Z,19.30
2023-03-02T07:42:34.600Z,19.20
2023-03-02T07:43:34.610Z,19.00
2023-03-02T07:44:34.578Z,18.10
2023-03-02T07:45:34.575Z,18.20
2023-03-02T07:46:34.647Z,16.70
2023-03-02T07:47:34.562Z,16.50
2023-03-02T07:48:34.539Z,18.20
2023-03-02T07:49:34.510Z,18.40
2023-03-02T07:50:34.519Z,18.10
2023-03-02T07:51:34.761Z,18.20
2023-03-02T07:52:34.526Z,18.30
2023-03-02T07:53:34.461Z,17.50
2023-03-02T07:54:34.491Z,16.60
2023-03-02T07:55:34.465Z,17.60
2023-03-02T07:56:34.418Z,19.00
2023-03-02T07:57:34.452Z,20.50
2023-03-02T07:58:35.381Z,18.80
2023-03-02T07:59:34.400Z,18.80
2023-03-02T08:00:34.375Z,17.10
2023-03-02T08:01:34.784Z,16.30
2023-03-02T08:02:34.402Z,18.00
2023-03-02T08:03:34.326Z,15.80
2023-03-02T08:04:34.312Z,15.20
2023-03-02T08:05:34.299Z,13.90
2023-03-02T08:06:34.292Z,14.00
2023-03-02T08:07:34.297Z,14.10
2023-03-02T08:08:34.260Z,14.70
2023-03-02T08:09:34.259Z,12.50
2023-03-02T08:10:34.241Z,18.30
2023-03-02T08:11:34.663Z,16.60
2023-03-02T08:12:34.263Z,14.10
2023-03-02T08:13:34.210Z,14.80
2023-03-02T08:14:34.205Z,15.40
2023-03-02T08:15:34.185Z,15.90
2023-03-02T08:16:34.273Z,15.70
2023-03-02T08:17:34.184Z,15.40
2023-03-02T08:18:34.121Z,17.90
2023-03-02T08:19:34.119Z,21.20
2023-03-02T08:20:34.127Z,21.70
2023-03-02T08:21:34.521Z,23.90
2023-03-02T08:22:34.111Z,21.80
2023-03-02T08:23:34.170Z,21.60
2023-03-02T08:24:34.058Z,22.50
2023-03-02T08:25:34.039Z,22.00
2023-03-02T08:26:34.054Z,22.60
2023-03-02T08:27:34.029Z,23.70
2023-03-02T08:28:34.005Z,18.80
2023-03-02T08:29:34.011Z,17.70
2023-03-02T08:30:33.973Z,21.80
2023-03-02T08:31:34.410Z,29.30
2023-03-02T08:32:34.016Z,33.10
2023-03-02T08:33:33.960Z,35.30
2023-03-02T08:34:33.911Z,33.40
2023-03-02T08:35:33.933Z,34.70
2023-03-02T08:36:34.263Z,34.50
2023-03-02T08:37:33.914Z,35.20
2023-03-02T08:38:33.868Z,37.10
2023-03-02T08:39:33.886Z,35.70
2023-03-02T08:40:33.844Z,36.00
2023-03-02T08:41:34.190Z,35.60
2023-03-02T08:42:33.816Z,34.70
2023-03-02T08:43:33.823Z,35.80
2023-03-02T08:44:33.809Z,36.70
2023-03-02T08:45:33.769Z,36.00
2023-03-02T08:46:33.761Z,37.10
2023-03-02T08:47:33.743Z,35.50
2023-03-02T08:48:33.843Z,35.70
2023-03-02T08:49:33.714Z,35.20
2023-03-02T08:50:33.708Z,35.90
2023-03-02T08:51:34.007Z,34.10
2023-03-02T08:52:33.684Z,36.90
2023-03-02T08:53:33.684Z,34.50
2023-03-02T08:54:33.660Z,33.80
2023-03-02T08:55:33.648Z,38.40
2023-03-02T08:56:34.108Z,39.70
2023-03-02T08:57:33.617Z,37.20
2023-03-02T08:58:33.616Z,34.50
2023-03-02T08:59:33.577Z,35.60
2023-03-02T09:00:33.571Z,36.20
2023-03-02T09:01:33.973Z,35.50
2023-03-02T09:02:33.745Z,37.00
2023-03-02T09:03:33.515Z,38.50
2023-03-02T09:04:33.591Z,37.20
2023-03-02T09:05:33.508Z,36.80
2023-03-02T09:06:33.494Z,38.40
2023-03-02T09:07:33.483Z,37.20
2023-03-02T09:08:33.477Z,36.70
2023-03-02T09:09:33.481Z,35.20
2023-03-02T09:10:33.444Z,37.50
2023-03-02T09:11:33.781Z,42.00
2023-03-02T09:12:33.407Z,42.10
2023-03-02T09:13:33.396Z,42.90
2023-03-02T09:14:33.403Z,38.90
2023-03-02T09:15:33.391Z,37.40
2023-03-02T09:16:33.451Z,39.60
2023-03-02T09:17:33.372Z,36.80
2023-03-02T09:18:33.322Z,35.40
2023-03-02T09:19:33.341Z,34.00
2023-03-02T09:20:33.313Z,30.40
2023-03-02T09:21:33.715Z,25.60
2023-03-02T09:22:33.300Z,26.60
2023-03-02T09:23:33.282Z,27.10
2023-03-02T09:24:33.259Z,27.10
2023-03-02T09:25:33.277Z,25.80
2023-03-02T09:26:33.240Z,27.90
2023-03-02T09:27:33.239Z,28.70
2023-03-02T09:28:33.207Z,28.60
2023-03-02T09:29:33.212Z,25.30
2023-03-02T09:30:33.174Z,27.10
2023-03-02T09:31:33.542Z,29.00
2023-03-02T09:32:33.354Z,28.30
2023-03-02T09:33:33.127Z,28.30
2023-03-02T09:34:33.122Z,29.40
2023-03-02T09:35:33.132Z,28.90
2023-03-02T09:36:33.121Z,27.20
2023-03-02T09:37:33.078Z,28.40
2023-03-02T09:38:33.049Z,24.70
2023-03-02T09:39:33.046Z,26.10
2023-03-02T09:40:33.036Z,25.60
2023-03-02T09:41:33.357Z,23.10
2023-03-02T09:42:43.599Z,23.50
2023-03-02T09:43:32.992Z,23.50
2023-03-02T09:44:32.997Z,22.00
2023-03-02T09:45:33.032Z,24.90
2023-03-02T09:46:32.958Z,23.10
2023-03-02T09:47:35.750Z,23.00
2023-03-02T09:48:32.937Z,21.60
2023-03-02T09:49:32.909Z,23.50
2023-03-02T09:50:32.918Z,23.00
2023-03-02T09:51:33.269Z,23.40
2023-03-02T09:52:32.909Z,21.50
2023-03-02T09:53:32.848Z,22.10
2023-03-02T09:54:32.894Z,20.50
2023-03-02T09:55:32.843Z,18.60
2023-03-02T09:56:33.109Z,19.60
2023-03-02T09:57:32.817Z,19.60
2023-03-02T09:58:32.784Z,17.80
2023-03-02T09:59:32.780Z,19.10
2023-03-02T10:00:32.758Z,19.70
2023-03-02T10:01:32.742Z,20.40
2023-03-02T10:02:32.774Z,20.80
2023-03-02T10:03:32.849Z,21.50
2023-03-02T10:04:32.856Z,19.20
2023-03-02T10:05:32.696Z,20.20
2023-03-02T10:06:33.054Z,18.70
2023-03-02T10:07:32.692Z,17.40
2023-03-02T10:08:32.685Z,17.80
2023-03-02T10:09:32.644Z,18.10
2023-03-02T10:10:32.642Z,17.90
2023-03-02T10:11:32.624Z,17.80
2023-03-02T10:12:32.601Z,16.70
2023-03-02T10:13:32.620Z,19.40
2023-03-02T10:14:32.563Z,16.20
2023-03-02T10:15:32.575Z,18.60
2023-03-02T10:16:33.079Z,16.90
2023-03-02T10:17:32.508Z,15.60
2023-03-02T10:18:32.568Z,16.00
2023-03-02T10:19:32.561Z,15.10
2023-03-02T10:20:35.541Z,16.70
2023-03-02T10:21:32.491Z,16.50
2023-03-02T10:22:32.449Z,15.70
2023-03-02T10:23:32.464Z,14.20
2023-03-02T10:24:32.451Z,13.90
2023-03-02T10:25:32.470Z,16.40
2023-03-02T10:26:32.703Z,14.80
2023-03-02T10:27:32.428Z,17.40
2023-03-02T10:28:32.374Z,15.80
2023-03-02T10:29:32.380Z,17.30
2023-03-02T10:30:32.392Z,16.00
2023-03-02T10:31:32.332Z,15.60
2023-03-02T10:32:32.445Z,17.40
2023-03-02T10:33:32.300Z,16.80
2023-03-02T10:34:32.308Z,17.70
2023-03-02T10:35:32.367Z,20.20
2023-03-02T10:36:32.314Z,17.50
2023-03-02T10:37:32.325Z,16.90
2023-03-02T10:38:32.237Z,18.00
2023-03-02T10:39:32.217Z,16.40
2023-03-02T10:40:32.215Z,15.90
2023-03-02T10:41:32.226Z,15.50
2023-03-02T10:42:32.367Z,19.60
2023-03-02T10:43:32.192Z,17.30
2023-03-02T10:44:32.160Z,18.30
2023-03-02T10:45:32.133Z,18.40
2023-03-02T10:46:32.628Z,17.30
2023-03-02T10:47:32.100Z,18.80
2023-03-02T10:48:32.140Z,18.90
2023-03-02T10:49:32.171Z,18.50
2023-03-02T10:50:32.088Z,17.70
2023-03-02T10:51:32.085Z,17.90
2023-03-02T10:52:32.119Z,16.30
2023-03-02T10:53:32.034Z,18.50
2023-03-02T10:54:32.032Z,16.40
2023-03-02T10:55:32.018Z,16.00
2023-03-02T10:56:32.392Z,14.50
2023-03-02T10:57:32.022Z,15.30
2023-03-02T10:58:32.045Z,13.60
2023-03-02T10:59:31.955Z,14.90
2023-03-02T11:00:31.941Z,13.20
2023-03-02T11:01:31.973Z,11.60
2023-03-02T11:02:31.937Z,13.70
2023-03-02T11:03:31.892Z,13.50
2023-03-02T11:04:31.965Z,12.10
2023-03-02T11:05:31.903Z,11.10
2023-03-02T11:06:32.264Z,11.40
2023-03-02T11:07:31.844Z,10.90
2023-03-02T11:08:31.844Z,10.50
2023-03-02T11:09:31.825Z,10.10
2023-03-02T11:10:31.823Z,9.00
2023-03-02T11:11:32.541Z,9.70
2023-03-02T11:12:31.791Z,10.30
2023-03-02T11:13:31.806Z,10.60
2023-03-02T11:14:31.750Z,9.20
2023-03-02T11:15:31.725Z,10.40
2023-03-02T11:16:31.834Z,11.10
2023-03-02T11:17:31.735Z,11.50
2023-03-02T11:18:31.714Z,12.10
2023-03-02T11:19:31.702Z,10.50
2023-03-02T11:20:31.765Z,10.70
2023-03-02T11:21:32.089Z,11.80
2023-03-02T11:22:31.640Z,12.10
2023-03-02T11:23:31.637Z,11.80
2023-03-02T11:24:31.600Z,10.60
2023-03-02T11:25:31.611Z,12.70
2023-03-02T11:26:31.618Z,12.70
2023-03-02T11:27:31.612Z,13.10
2023-03-02T11:28:31.561Z,12.40
2023-03-02T11:29:31.537Z,11.30
2023-03-02T11:30:31.527Z,12.40
2023-03-02T11:31:31.892Z,11.20
2023-03-02T11:32:31.645Z,12.20
2023-03-02T11:33:32.477Z,13.20
2023-03-02T11:34:31.508Z,13.70
2023-03-02T11:35:31.559Z,12.20
2023-03-02T11:36:31.449Z,11.90
2023-03-02T11:37:31.450Z,11.90
2023-03-02T11:38:31.422Z,14.00
2023-03-02T11:39:31.435Z,11.50
2023-03-02T11:40:31.411Z,10.80
2023-03-02T11:41:31.662Z,12.40
2023-03-02T11:42:31.494Z,12.20
2023-03-02T11:43:31.371Z,12.70
2023-03-02T11:44:31.335Z,12.00
2023-03-02T11:45:31.371Z,13.10
2023-03-02T11:46:31.380Z,13.50
2023-03-02T11:47:31.310Z,12.20
2023-03-02T11:48:31.301Z,13.70
2023-03-02T11:49:31.296Z,13.60
2023-03-02T11:50:31.309Z,12.20
2023-03-02T11:51:31.742Z,12.20
2023-03-02T11:52:31.243Z,11.80
2023-03-02T11:53:31.251Z,11.20
2023-03-02T11:54:31.218Z,13.60
2023-03-02T11:55:31.220Z,12.60
2023-03-02T11:56:31.217Z,13.50
2023-03-02T11:57:31.170Z,13.60
2023-03-02T11:58:31.161Z,13.90
2023-03-02T11:59:31.131Z,15.00
2023-03-02T12:00:31.137Z,13.20
2023-03-02T12:01:31.202Z,12.40
2023-03-02T12:02:31.108Z,14.90
2023-03-02T12:03:31.091Z,12.90
2023-03-02T12:04:31.089Z,13.60
2023-03-02T12:05:31.201Z,12.50
2023-03-02T12:06:31.270Z,14.30
2023-03-02T12:07:31.049Z,13.80
2023-03-02T12:08:31.011Z,13.40
2023-03-02T12:09:31.338Z,13.20
2023-03-02T12:10:31.001Z,12.90
2023-03-02T12:11:30.991Z,12.80
2023-03-02T12:12:30.965Z,12.60
2023-03-02T12:13:30.981Z,11.20
2023-03-02T12:14:30.943Z,12.60
2023-03-02T12:15:30.910Z,12.10
2023-03-02T12:16:31.449Z,13.50
2023-03-02T12:17:30.939Z,12.00
2023-03-02T12:18:30.886Z,12.90
2023-03-02T12:19:30.874Z,10.30
2023-03-02T12:20:30.865Z,12.70
2023-03-02T12:21:30.838Z,13.00
2023-03-02T12:22:30.828Z,14.20
2023-03-02T12:23:30.833Z,15.10
2023-03-02T12:24:30.807Z,13.20
2023-03-02T12:25:30.810Z,13.10
2023-03-02T12:26:31.325Z,14.60
2023-03-02T12:27:30.811Z,15.50
2023-03-02T12:28:30.864Z,13.70
2023-03-02T12:29:30.733Z,14.50
2023-03-02T12:30:30.732Z,15.80
2023-03-02T12:31:30.732Z,14.90
2023-03-02T12:32:30.757Z,13.60
2023-03-02T12:33:30.749Z,12.90
2023-03-02T12:34:31.360Z,13.70
2023-03-02T12:35:30.674Z,13.90
2023-03-02T12:36:30.741Z,14.60
2023-03-02T12:37:30.617Z,13.70
2023-03-02T12:38:30.707Z,12.50
2023-03-02T12:39:30.592Z,14.30
2023-03-02T12:40:30.605Z,13.00
2023-03-02T12:41:30.602Z,13.20
2023-03-02T12:42:30.570Z,14.90
2023-03-02T12:43:30.572Z,14.10
2023-03-02T12:44:30.523Z,14.10
2023-03-02T12:45:30.593Z,13.30
2023-03-02T12:46:30.594Z,13.30
2023-03-02T12:47:30.994Z,13.80
2023-03-02T12:48:30.529Z,14.20